Time;durP1;ratioP1;P1;durP2;ratioP2;P2;SDS_P1;SDS_P2;PMS_P1;PMS_P2;Temp;Humidity;BMP_temperature;BMP_pressure;BME280_temperature;BME280_humidity;BME280_pressure;Samples;Min_cycle;Max_cycle;Signal;HPM_P1;HPM_P2
2021/05/26 00:02:15;;;;;;;33.67;20.60;;;;;;;-150.07;51.85;62041.63;4914267;29;20078;-75
2021/05/26 00:04:41;;;;;;;40.33;20.95;;;;;;;-150.07;52.20;63040.03;4903360;29;20039;-74
2021/05/26 00:07:08;;;;;;;33.95;20.67;;;;;;;-150.07;52.00;62060.44;4896311;29;20475;-74
2021/05/26 00:09:35;;;;;;;36.08;19.70;;;;;;;-150.07;51.74;62081.38;4896428;29;20041;-75
2021/05/26 00:12:05;;;;;;;36.25;19.00;;;;;;;-150.07;51.58;62064.63;4909473;29;20048;-75
2021/05/26 00:14:32;;;;;;;33.63;19.75;;;;;;;-150.07;51.16;61980.94;4906351;29;20475;-75
2021/05/26 00:16:59;;;;;;;42.00;19.85;;;;;;;-150.07;50.86;62022.78;4899324;29;20024;-75
2021/05/26 00:19:26;;;;;;;34.63;19.08;;;;;;;-150.07;51.04;62089.75;4896535;29;20028;-73
2021/05/26 00:21:53;;;;;;;35.25;19.13;;;;;;;-150.07;50.69;62073.00;4895734;29;20075;-74
2021/05/26 00:24:20;;;;;;;38.20;19.92;;;;;;;-150.07;50.95;62052.09;4896396;29;20021;-75
2021/05/26 00:26:47;;;;;;;36.33;18.65;;;;;;;-150.07;49.93;62221.59;4896637;29;20052;-75
2021/05/26 00:29:15;;;;;;;39.60;18.88;;;;;;;-150.07;49.97;62225.78;4896143;29;20109;-74
2021/05/26 00:31:42;;;;;;;35.72;17.80;;;;;;;-150.07;49.61;62202.75;4909233;29;20031;-76
2021/05/26 00:34:08;;;;;;;33.80;19.92;;;;;;;-150.07;50.08;62158.81;4894606;29;20025;-75
2021/05/26 00:36:35;;;;;;;38.75;21.65;;;;;;;-150.07;49.55;62330.44;4896566;29;20071;-75
2021/05/26 00:39:05;;;;;;;33.92;21.10;;;;;;;-150.07;49.26;63014.91;4914722;29;20028;-74
2021/05/26 00:41:33;;;;;;;32.42;18.60;;;;;;;-150.07;48.82;62192.31;4905943;29;20036;-74
2021/05/26 00:44:00;;;;;;;35.72;20.75;;;;;;;-150.07;48.08;62225.78;4895985;29;20040;-75
2021/05/26 00:46:27;;;;;;;34.85;19.40;;;;;;;-150.07;48.58;62160.91;4895846;29;20085;-74
2021/05/26 00:48:54;;;;;;;35.05;20.08;;;;;;;-150.07;48.25;62223.69;4895501;29;20048;-75
2021/05/26 00:51:21;;;;;;;37.72;18.88;;;;;;;-150.07;47.98;62213.22;4905675;29;20394;-75
2021/05/26 00:53:47;;;;;;;42.15;19.20;;;;;;;-150.07;47.61;62345.09;4888156;29;20027;-73
2021/05/26 00:56:14;;;;;;;37.28;18.65;;;;;;;-150.07;47.14;62311.59;4915087;29;20042;-74
2021/05/26 00:58:42;;;;;;;45.78;19.15;;;;;;;-150.07;47.66;62267.66;4914794;29;20044;-74
2021/05/26 01:01:09;;;;;;;34.53;19.77;;;;;;;-150.07;47.61;62240.44;4906235;29;20039;-75
2021/05/26 01:03:36;;;;;;;43.83;19.65;;;;;;;-150.07;46.94;62253.00;4895833;29;20447;-76
2021/05/26 01:06:03;;;;;;;35.38;18.67;;;;;;;-150.07;46.55;62353.47;4907963;29;20032;-74
2021/05/26 01:08:30;;;;;;;40.08;20.05;;;;;;;-150.07;46.96;62221.59;4883449;29;20025;-76
2021/05/26 01:10:57;;;;;;;36.97;18.48;;;;;;;-150.07;47.06;62315.78;4913207;29;20036;-74
2021/05/26 01:13:25;;;;;;;29.55;16.67;;;;;;;-150.07;47.35;62378.56;4914878;29;20039;-73
2021/05/26 01:15:52;;;;;;;35.78;19.17;;;;;;;-150.07;46.64;62301.13;4904991;29;20386;-74
2021/05/26 01:18:28;;;;;;;39.33;20.92;;;;;;;-150.07;46.56;62336.72;4887253;29;20043;-75
2021/05/26 01:20:58;;;;;;;30.65;18.95;;;;;;;-150.07;46.62;62294.84;4908459;29;20120;-73
2021/05/26 01:23:26;;;;;;;37.30;18.33;;;;;;;-150.07;46.70;62479.03;4895336;29;20037;-74
2021/05/26 01:25:58;;;;;;;34.97;18.73;;;;;;;-150.07;45.75;62527.19;4911934;29;20497;-74
2021/05/26 01:28:28;;;;;;;41.58;22.23;;;;;;;-150.07;45.74;62456.03;4914376;29;20042;-75
2021/05/26 01:30:56;;;;;;;33.33;17.27;;;;;;;-150.07;45.67;62416.25;4908932;29;20080;-75
2021/05/26 01:33:24;;;;;;;39.20;18.10;;;;;;;-150.07;45.40;62474.84;4897330;29;20452;-74
2021/05/26 01:35:51;;;;;;;32.85;17.85;;;;;;;-150.07;45.54;62391.13;4914449;29;20836;-75
2021/05/26 01:38:21;;;;;;;33.65;16.90;;;;;;;-150.07;44.72;62466.47;4910061;29;20035;-75
2021/05/26 01:40:47;;;;;;;;;;;;;;;-150.07;44.57;62546.03;4899414;29;20143;-76
2021/05/26 01:43:15;;;;;;;38.58;17.65;;;;;;;-150.07;43.95;62548.13;4899001;29;20363;-75
2021/05/26 01:45:42;;;;;;;34.33;16.30;;;;;;;-150.07;42.87;63508.97;4898764;29;20021;-75
2021/05/26 01:48:10;;;;;;;30.17;16.52;;;;;;;-150.07;42.99;62606.72;4898871;29;20076;-75
2021/05/26 01:50:37;;;;;;;31.02;14.70;;;;;;;-150.07;42.25;62659.03;4912019;29;20028;-75
2021/05/26 01:53:07;;;;;;;33.20;14.00;;;;;;;-150.07;41.78;62723.94;4891966;29;20050;-75
2021/05/26 01:55:34;;;;;;;;;;;;;;;-150.07;41.16;62694.63;4918380;29;20095;-75
2021/05/26 01:58:01;;;;;;;30.13;12.82;;;;;;;-150.07;41.17;62809.75;4918320;29;20370;-76
2021/05/26 02:00:28;;;;;;;23.17;12.18;;;;;;;-150.07;41.12;62767.91;4917865;29;20071;-75
2021/05/26 02:02:56;;;;;;;38.63;12.48;;;;;;;-150.07;40.34;62759.53;4917480;29;20071;-75
2021/05/26 02:05:23;;;;;;;33.38;12.50;;;;;;;-150.07;40.63;62805.56;4917641;29;20484;-74
2021/05/26 02:07:52;;;;;;;31.10;11.75;;;;;;;-150.07;40.29;62828.59;4907343;29;20033;-75
2021/05/26 02:13:06;;;;;;;28.88;11.10;;;;;;;-150.07;40.21;63454.53;4898763;29;20052;-75
2021/05/26 02:15:32;;;;;;;24.00;11.48;;;;;;;-150.07;39.56;62857.91;4898550;29;20058;-74
2021/05/26 02:17:59;;;;;;;26.27;11.35;;;;;;;-150.07;39.33;62797.19;4902166;29;20032;-76
2021/05/26 02:20:26;;;;;;;25.98;10.90;;;;;;;-150.07;39.64;63098.63;4910755;29;20036;-76
2021/05/26 02:22:53;;;;;;;17.45;9.35;;;;;;;-150.07;39.18;62757.44;4912333;29;20130;-75
2021/05/26 02:25:20;;;;;;;33.45;9.95;;;;;;;-150.07;38.65;62872.56;4898307;29;20024;-75
2021/05/26 02:27:46;;;;;;;24.65;8.85;;;;;;;-150.07;39.15;62966.75;4915153;29;20363;-75
2021/05/26 02:30:14;;;;;;;33.15;10.48;;;;;;;-150.07;38.39;62956.28;4917169;29;20056;-76
2021/05/26 02:32:40;;;;;;;28.05;10.68;;;;;;;-150.07;38.22;62920.69;4917201;29;20486;-75
2021/05/26 02:35:08;;;;;;;25.92;8.90;;;;;;;-150.07;38.12;63316.34;4917132;29;20040;-75
2021/05/26 02:37:35;;;;;;;17.73;7.68;;;;;;;-150.07;38.17;62943.72;4917062;29;20115;-75
2021/05/26 02:40:01;;;;;;;19.20;8.60;;;;;;;-150.07;38.47;63079.78;4917172;29;20032;-75
2021/05/26 02:42:28;;;;;;;26.48;7.38;;;;;;;-150.07;37.78;63002.34;4916774;29;20402;-76
2021/05/26 02:44:55;;;;;;;15.65;7.30;;;;;;;-150.07;37.45;63033.75;4914994;29;20098;-75
2021/05/26 02:47:22;;;;;;;19.77;6.57;;;;;;;-150.07;35.97;63094.44;4902657;29;20043;-73
2021/05/26 02:49:49;;;;;;;19.00;8.20;;;;;;;-150.07;36.55;62996.06;4904309;29;20565;-74
2021/05/26 02:52:16;;;;;;;16.92;7.63;;;;;;;-150.07;36.39;62991.88;4904320;29;20055;-73
2021/05/26 02:54:43;;;;;;;21.98;6.88;;;;;;;-150.07;36.50;63012.81;4896393;29;20494;-76
2021/05/26 02:57:09;;;;;;;23.20;6.57;;;;;;;-150.07;36.84;63096.53;4898142;29;20047;-73
2021/05/26 02:59:36;;;;;;;19.55;6.40;;;;;;;-150.07;36.86;63220.06;4915745;29;20036;-74
2021/05/26 03:02:03;;;;;;;14.50;5.93;;;;;;;-150.07;36.45;63266.09;4916177;29;20142;-75
2021/05/26 03:04:30;;;;;;;21.35;6.05;;;;;;;-150.07;35.43;63226.34;4886504;29;20028;-73
2021/05/26 03:06:57;;;;;;;24.20;7.22;;;;;;;-150.07;35.89;63094.44;4897684;29;20021;-75
2021/05/26 03:09:24;;;;;;;21.70;6.57;;;;;;;-150.07;35.81;63176.09;4915194;29;20031;-74
2021/05/26 03:11:50;;;;;;;20.27;4.95;;;;;;;-150.07;35.64;63178.19;4916554;29;20032;-74
2021/05/26 03:14:18;;;;;;;35.25;7.50;;;;;;;-150.07;35.73;63986.34;4913813;29;20025;-74
2021/05/26 03:16:45;;;;;;;23.45;6.55;;;;;;;-150.07;35.43;63096.53;4895978;29;20410;-74
2021/05/26 03:19:12;;;;;;;16.70;6.57;;;;;;;-150.07;34.96;63002.34;4909998;29;20094;-75
2021/05/26 03:21:39;;;;;;;18.65;5.63;;;;;;;-150.07;35.74;63014.91;4902694;29;20036;-76
2021/05/26 03:24:07;;;;;;;24.95;6.50;;;;;;;-150.07;35.47;63040.03;4916125;29;20056;-75
2021/05/26 03:26:34;;;;;;;20.00;4.93;;;;;;;-150.07;35.23;63031.66;4916259;29;20047;-75
2021/05/26 03:29:01;;;;;;;20.75;5.82;;;;;;;-150.07;34.98;63096.53;4916481;29;20051;-74
2021/05/26 03:31:31;;;;;;;14.60;5.22;;;;;;;-150.07;35.01;63096.53;4915811;29;20059;-75
2021/05/26 03:33:58;;;;;;;21.83;5.03;;;;;;;-150.07;35.27;63102.81;4916046;29;20038;-74
2021/05/26 03:36:25;;;;;;;23.50;6.30;;;;;;;-150.07;34.91;63230.53;4915927;29;20036;-74
2021/05/26 03:38:52;;;;;;;11.43;6.43;;;;;;;-150.07;35.80;63144.69;4915874;29;20093;-75
2021/05/26 03:41:19;;;;;;;22.67;5.68;;;;;;;-150.07;35.34;63098.63;4914661;29;20028;-75
2021/05/26 03:43:46;;;;;;;14.52;5.30;;;;;;;-150.07;35.78;63117.47;4915795;29;20031;-74
2021/05/26 03:46:13;;;;;;;26.00;6.95;;;;;;;-150.07;35.24;63178.19;4915768;29;20032;-73
2021/05/26 03:48:40;;;;;;;19.42;5.75;;;;;;;-150.07;35.58;63161.44;4913590;29;20052;-74
2021/05/26 03:51:07;;;;;;;14.57;5.35;;;;;;;-150.07;35.56;63188.66;4904789;29;20063;-75
2021/05/26 03:53:34;;;;;;;20.27;5.93;;;;;;;-150.07;35.52;63232.63;4901884;29;20032;-75
2021/05/26 03:56:00;;;;;;;13.93;4.75;;;;;;;-150.07;34.37;63266.09;4894487;29;20039;-75
2021/05/26 03:58:27;;;;;;;19.27;5.00;;;;;;;-150.07;34.41;63446.16;4896979;29;20044;-74
2021/05/26 04:00:54;;;;;;;12.45;3.90;;;;;;;-150.07;34.31;63488.03;4895426;29;20036;-75
2021/05/26 04:03:21;;;;;;;27.98;4.97;;;;;;;-150.07;33.74;63408.47;4896685;29;20131;-75
2021/05/26 04:05:48;;;;;;;19.85;4.10;;;;;;;-150.07;33.56;63504.78;4899463;29;20477;-75
2021/05/26 04:08:15;;;;;;;14.98;4.45;;;;;;;-150.07;32.95;63613.66;4915576;29;20856;-74
2021/05/26 04:10:42;;;;;;;13.82;3.85;;;;;;;-150.07;33.10;63645.03;4912806;29;20771;-75
2021/05/26 04:13:09;;;;;;;15.45;4.00;;;;;;;-150.07;30.86;63689.00;4896447;29;20059;-75
2021/05/26 04:15:35;;;;;;;13.52;3.60;;;;;;;-150.07;31.56;63525.72;4896695;29;20056;-75
2021/05/26 04:18:09;;;;;;;16.13;3.70;;;;;;;-150.07;31.46;63536.19;4895723;29;20107;-74
2021/05/26 04:20:36;;;;;;;17.23;4.13;;;;;;;-150.07;31.77;63483.84;4896305;29;20039;-75
2021/05/26 04:23:03;;;;;;;13.85;3.60;;;;;;;-150.07;31.18;63402.19;4896607;29;20073;-75
2021/05/26 04:25:30;;;;;;;11.23;5.35;;;;;;;-150.07;30.62;63496.41;4896091;29;20033;-76
2021/05/26 04:27:57;;;;;;;13.60;3.47;;;;;;;-150.07;30.75;63207.50;4896838;29;20127;-75
2021/05/26 04:30:24;;;;;;;17.67;5.18;;;;;;;-150.07;30.78;63282.84;4894871;29;20029;-75
2021/05/26 04:32:51;;;;;;;10.50;2.63;;;;;;;-150.07;30.16;63473.38;4896219;29;20040;-75
2021/05/26 04:35:18;;;;;;;14.50;2.70;;;;;;;-150.07;30.89;63446.16;4896669;29;20107;-75
2021/05/26 04:37:46;;;;;;;15.38;3.25;;;;;;;-150.07;30.37;63552.94;4894774;29;20033;-75
2021/05/26 04:40:14;;;;;;;11.05;4.32;;;;;;;-150.07;29.85;64359.06;4895940;29;20379;-74
2021/05/26 04:42:40;;;;;;;9.25;2.45;;;;;;;-150.07;28.61;63523.63;4896204;29;20041;-74
2021/05/26 04:45:08;;;;;;;13.55;2.95;;;;;;;-150.07;28.77;63433.59;4896016;29;20115;-73
2021/05/26 04:47:35;;;;;;;13.68;3.13;;;;;;;-150.07;28.64;63408.47;4878403;29;20044;-75
2021/05/26 04:50:02;;;;;;;8.93;2.60;;;;;;;-150.07;28.92;63450.34;4877410;29;20073;-77
2021/05/26 04:52:28;;;;;;;11.30;2.33;;;;;;;-150.07;28.67;63404.28;4885704;29;20044;-73
2021/05/26 04:54:55;;;;;;;9.65;2.20;;;;;;;-150.07;28.82;63372.88;4894192;29;20469;-76
2021/05/26 04:57:22;;;;;;;9.88;2.55;;;;;;;-150.07;28.50;63429.41;4895609;29;20124;-75
2021/05/26 04:59:49;;;;;;;10.23;3.15;;;;;;;-150.07;27.51;63475.47;4902275;29;20526;-74
2021/05/26 05:02:16;;;;;;;15.35;2.58;;;;;;;-150.07;28.01;63462.91;4895492;29;20048;-75
2021/05/26 05:04:42;;;;;;;13.45;2.40;;;;;;;-150.07;28.24;63536.19;4896300;29;20052;-75
2021/05/26 05:07:09;;;;;;;9.70;3.13;;;;;;;-150.07;28.73;63508.97;4895568;29;20020;-76
2021/05/26 05:09:36;;;;;;;12.15;2.17;;;;;;;-150.07;28.40;63467.09;4901877;29;20486;-75
2021/05/26 05:12:04;;;;;;;11.20;2.97;;;;;;;-150.07;28.16;63515.25;4914569;29;20099;-75
2021/05/26 05:14:30;;;;;;;11.98;3.25;;;;;;;-150.07;28.67;63446.16;4909711;29;20076;-76
2021/05/26 05:16:57;;;;;;;16.85;5.68;;;;;;;-150.07;28.74;63467.09;4906014;29;20032;-75
2021/05/26 05:19:24;;;;;;;14.48;3.15;;;;;;;-150.07;29.30;63310.06;4898440;29;20036;-75
2021/05/26 05:21:51;;;;;;;10.23;2.70;;;;;;;-150.07;28.95;63400.09;4895596;29;20148;-75
2021/05/26 05:24:18;;;;;;;12.70;2.95;;;;;;;-150.07;28.99;63504.78;4895565;29;20747;-75
2021/05/26 05:26:44;;;;;;;9.27;2.67;;;;;;;-150.07;28.63;63628.28;4895389;29;20032;-75
2021/05/26 05:29:11;;;;;;;27.80;5.93;;;;;;;-150.07;28.99;63559.22;4911817;29;20031;-76
2021/05/26 05:31:38;;;;;;;15.70;3.83;;;;;;;-150.07;28.89;63718.31;4905425;29;20029;-76
2021/05/26 05:34:05;;;;;;;10.00;2.83;;;;;;;-150.07;28.33;63680.63;4909857;29;20124;-74
2021/05/26 05:36:32;;;;;;;11.13;2.47;;;;;;;-150.07;28.82;63659.69;4914167;29;20484;-75
2021/05/26 05:38:59;;;;;;;16.25;3.55;;;;;;;-150.07;28.87;63615.75;4900679;29;20084;-76
2021/05/26 05:41:26;;;;;;;8.65;2.60;;;;;;;-150.07;29.42;63651.31;4875576;29;20056;-76
2021/05/26 05:43:52;;;;;;;12.27;3.00;;;;;;;-150.07;29.94;63580.16;4889552;29;20033;-74
2021/05/26 05:46:19;;;;;;;10.63;3.00;;;;;;;-150.07;29.13;63603.19;4901677;29;20040;-75
2021/05/26 05:48:46;;;;;;;10.90;2.65;;;;;;;-150.07;29.69;63557.13;4902316;29;20076;-75
2021/05/26 05:51:13;;;;;;;12.63;4.20;;;;;;;-150.07;29.52;63475.47;4913050;29;20057;-75
2021/05/26 05:53:40;;;;;;;11.75;3.80;;;;;;;-150.07;29.62;63479.66;4901783;29;20036;-75
2021/05/26 05:56:06;;;;;;;12.95;5.90;;;;;;;-150.07;29.82;63521.53;4895341;29;20036;-74
2021/05/26 05:58:33;;;;;;;9.27;3.15;;;;;;;-150.07;30.27;63431.50;4895490;29;20441;-75
2021/05/26 06:01:00;;;;;;;15.93;3.85;;;;;;;-150.07;30.72;63485.94;4895111;29;20116;-74
2021/05/26 06:03:27;;;;;;;9.82;3.85;;;;;;;-150.07;30.58;63521.53;4910914;29;20568;-76
2021/05/26 06:05:54;;;;;;;15.80;3.50;;;;;;;-150.07;29.98;63592.72;4914096;29;20043;-75
2021/05/26 06:08:21;;;;;;;9.40;3.60;;;;;;;-150.07;30.45;63408.47;4899646;29;20072;-73
2021/05/26 06:10:48;;;;;;;11.20;4.82;;;;;;;-150.07;31.30;63412.66;4895396;29;20554;-74
2021/05/26 06:13:14;;;;;;;15.02;3.80;;;;;;;-150.07;31.10;63421.03;4895371;29;20143;-75
2021/05/26 06:15:41;;;;;;;10.75;3.65;;;;;;;-150.07;30.97;63372.88;4908319;29;20024;-74
2021/05/26 06:18:08;;;;;;;22.02;4.00;;;;;;;-150.07;31.59;63316.34;4914166;29;20035;-75
2021/05/26 06:20:35;;;;;;;22.27;6.20;;;;;;;-150.07;31.94;63228.44;4917312;29;20032;-75
2021/05/26 06:23:02;;;;;;;14.07;4.05;;;;;;;-150.07;31.92;63257.75;4893704;29;20062;-74
2021/05/26 06:25:29;;;;;;;13.07;4.20;;;;;;;-150.07;32.45;64178.97;4915174;29;20418;-75
2021/05/26 06:27:56;;;;;;;14.80;4.07;;;;;;;-150.07;32.13;63125.84;4917301;29;20043;-75
2021/05/26 06:30:23;;;;;;;14.18;4.28;;;;;;;-150.07;32.38;63094.44;4917288;29;20063;-75
2021/05/26 06:32:50;;;;;;;16.15;4.90;;;;;;;-150.07;33.01;63159.34;4915973;29;20028;-74
2021/05/26 06:35:17;;;;;;;9.57;4.75;;;;;;;-150.07;33.18;63075.59;4915784;29;20068;-74
2021/05/26 06:37:44;;;;;;;17.85;5.78;;;;;;;-150.07;33.57;63148.88;4917199;29;20043;-75
2021/05/26 06:40:11;;;;;;;13.52;4.18;;;;;;;-150.07;33.59;63094.44;4917151;29;20028;-74
2021/05/26 06:42:38;;;;;;;16.00;5.30;;;;;;;-150.07;33.24;63211.69;4917186;29;20495;-75
2021/05/26 06:45:05;;;;;;;15.80;5.40;;;;;;;-150.07;33.70;63067.22;4915300;29;20058;-74
2021/05/26 06:47:32;;;;;;;17.30;4.57;;;;;;;-150.07;33.74;63090.25;4917593;29;20035;-75
2021/05/26 06:50:01;;;;;;;22.52;4.95;;;;;;;-150.07;33.68;63109.09;4917025;29;20049;-75
2021/05/26 06:52:30;;;;;;;11.93;4.10;;;;;;;-150.07;33.83;63048.41;4915481;29;20032;-76
2021/05/26 06:54:57;;;;;;;13.63;4.40;;;;;;;-150.07;33.57;62977.22;4893911;29;20164;-76
2021/05/26 06:57:24;;;;;;;12.50;5.07;;;;;;;-150.07;33.80;63040.03;4897313;29;20032;-75
2021/05/26 06:59:50;;;;;;;12.30;3.50;;;;;;;-150.07;34.49;63014.91;4897620;29;20036;-76
2021/05/26 07:02:17;;;;;;;15.45;5.15;;;;;;;-150.07;34.25;62964.66;4889880;29;20095;-74
2021/05/26 07:04:44;;;;;;;13.10;4.10;;;;;;;-150.07;34.76;62933.25;4895949;29;20119;-75
2021/05/26 07:07:11;;;;;;;11.70;3.47;;;;;;;-150.07;35.08;62906.06;4903002;29;20446;-75
2021/05/26 07:09:38;;;;;;;14.90;5.03;;;;;;;-150.07;35.93;62864.19;4910550;29;20025;-75
2021/05/26 07:12:05;;;;;;;16.48;5.18;;;;;;;-150.07;35.78;62906.06;4907826;29;20020;-75
2021/05/26 07:14:32;;;;;;;14.32;4.75;;;;;;;-150.07;35.93;62914.41;4900483;29;20173;-75
2021/05/26 07:16:58;;;;;;;13.00;4.72;;;;;;;-150.07;36.26;62895.59;4915671;29;20091;-74
2021/05/26 07:19:25;;;;;;;16.02;6.20;;;;;;;-150.07;36.23;62893.50;4902509;29;20541;-76
2021/05/26 07:21:52;;;;;;;16.83;4.85;;;;;;;-150.07;36.15;63010.72;4896625;29;20185;-74
2021/05/26 07:24:19;;;;;;;14.57;5.18;;;;;;;-150.07;36.63;62985.59;4895465;29;20047;-76
2021/05/26 07:26:46;;;;;;;14.05;5.05;;;;;;;-150.07;36.62;62952.09;4895608;29;20059;-75
2021/05/26 07:29:13;;;;;;;17.35;5.22;;;;;;;-150.07;37.06;62931.16;4897895;29;20020;-75
2021/05/26 07:31:41;;;;;;;18.20;5.82;;;;;;;-150.07;37.19;62943.72;4892611;29;20025;-75
2021/05/26 07:34:08;;;;;;;21.15;5.28;;;;;;;-150.07;37.58;62918.59;4889106;29;20119;-76
2021/05/26 07:36:35;;;;;;;12.77;5.13;;;;;;;-150.07;37.77;63278.66;4890632;29;20081;-76
2021/05/26 07:39:02;;;;;;;14.35;6.10;;;;;;;-150.07;38.04;62872.56;4896516;29;20032;-75
2021/05/26 07:41:29;;;;;;;21.00;6.28;;;;;;;-150.07;38.40;62834.88;4893496;29;20025;-73
2021/05/26 07:43:56;;;;;;;19.55;6.32;;;;;;;-150.07;38.60;62914.41;4895264;29;20029;-74
2021/05/26 07:46:23;;;;;;;29.90;6.55;;;;;;;-150.07;38.67;62864.19;4896090;29;20040;-74
2021/05/26 07:48:52;;;;;;;25.60;6.57;;;;;;;-150.07;38.84;62845.34;4909472;29;20469;-74
2021/05/26 07:51:28;;;;;;;23.33;5.57;;;;;;;-150.07;39.22;62813.94;4910728;29;20475;-74
2021/05/26 07:53:55;;;;;;;19.83;5.80;;;;;;;-150.07;38.64;62880.94;4901003;29;20108;-74
2021/05/26 07:56:22;;;;;;;15.82;5.22;;;;;;;-150.07;38.91;62744.88;4909176;29;20166;-74
2021/05/26 07:58:49;;;;;;;15.88;6.05;;;;;;;-150.07;39.25;62790.91;4905363;29;20029;-74
2021/05/26 08:01:16;;;;;;;15.25;5.13;;;;;;;-150.07;39.17;62805.56;4902876;29;20088;-75
2021/05/26 08:03:43;;;;;;;12.98;4.78;;;;;;;-150.07;39.06;62828.59;4895579;29;20052;-75
2021/05/26 08:06:12;;;;;;;16.17;6.05;;;;;;;-150.07;39.28;62780.44;4895909;29;20033;-74
2021/05/26 08:08:39;;;;;;;15.07;5.22;;;;;;;-150.07;39.32;62788.81;4899365;29;20500;-74
2021/05/26 08:11:07;;;;;;;22.67;5.20;;;;;;;-150.07;39.22;62772.09;4907299;29;20029;-74
2021/05/26 08:13:34;;;;;;;20.60;6.63;;;;;;;-150.07;39.30;62638.13;4899012;29;20064;-73
2021/05/26 08:16:01;;;;;;;20.88;5.18;;;;;;;-150.07;39.35;62713.47;4903601;29;20095;-79
2021/05/26 08:18:28;;;;;;;14.20;5.90;;;;;;;-150.07;39.44;62705.09;4904581;29;20044;-75
2021/05/26 08:20:54;;;;;;;19.13;7.43;;;;;;;-150.07;39.42;62688.34;4906314;29;20504;-75
2021/05/26 08:23:23;;;;;;;16.42;6.45;;;;;;;-150.07;39.74;62709.28;4902905;29;20039;-76
2021/05/26 08:25:49;;;;;;;17.35;5.93;;;;;;;-150.07;39.98;62650.69;4901316;29;20186;-73
2021/05/26 08:28:16;;;;;;;18.38;7.50;;;;;;;-150.07;39.97;62774.19;4900119;29;20013;-73
2021/05/26 08:30:45;;;;;;;17.40;6.30;;;;;;;-150.07;40.00;62673.69;4902331;29;20120;-74
2021/05/26 08:33:12;;;;;;;23.52;6.35;;;;;;;-150.07;40.09;62780.44;4903320;29;20028;-74
2021/05/26 08:35:39;;;;;;;22.45;7.30;;;;;;;-150.07;39.94;62734.41;4903964;29;20151;-74
2021/05/26 08:38:06;;;;;;;18.15;6.00;;;;;;;-150.07;39.75;62809.75;4905116;29;20063;-73
2021/05/26 08:40:33;;;;;;;19.50;6.53;;;;;;;-150.07;39.78;62847.44;4904689;29;20029;-75
2021/05/26 08:43:01;;;;;;;19.30;5.95;;;;;;;-150.07;39.79;62839.06;4900630;29;20025;-73
2021/05/26 08:45:28;;;;;;;16.38;6.75;;;;;;;-150.07;39.98;62797.19;4902831;29;20040;-73
2021/05/26 08:47:59;;;;;;;15.40;6.90;;;;;;;-150.07;40.03;62738.59;4904144;29;20032;-74
2021/05/26 08:50:26;;;;;;;18.92;6.60;;;;;;;-150.07;40.24;62684.16;4902965;29;20040;-74
2021/05/26 08:52:53;;;;;;;18.67;6.60;;;;;;;-150.07;40.57;62770.00;4896410;29;20040;-75
2021/05/26 08:55:20;;;;;;;16.88;6.88;;;;;;;-150.07;40.58;62793.00;4893165;29;20031;-77
2021/05/26 08:57:47;;;;;;;21.48;6.07;;;;;;;-150.07;40.55;62776.28;4894450;29;20035;-74
2021/05/26 09:00:14;;;;;;;14.70;6.80;;;;;;;-150.07;40.70;62776.28;4894435;29;20083;-74
2021/05/26 09:02:41;;;;;;;18.25;6.50;;;;;;;-150.07;40.90;62734.41;4891099;29;20159;-75
2021/05/26 09:05:31;;;;;;;26.30;7.22;;;;;;;-150.07;41.06;62780.44;4895077;29;20020;-73
2021/05/26 09:08:00;;;;;;;;;;;;;;;-150.07;41.18;62780.44;4900446;29;20069;-74
2021/05/26 09:10:27;;;;;;;18.35;5.97;;;;;;;-150.07;41.31;62751.16;4900845;29;19931;-75
2021/05/26 09:12:57;;;;;;;16.17;6.90;;;;;;;-150.07;41.18;62638.13;4896426;29;20045;-73
2021/05/26 09:15:24;;;;;;;22.63;7.32;;;;;;;-150.07;41.66;62619.28;4895301;29;20032;-74
2021/05/26 09:17:56;;;;;;;25.33;7.30;;;;;;;-150.07;41.59;62636.03;4904441;29;20562;-74
2021/05/26 09:20:29;;;;;;;13.82;6.30;;;;;;;-150.07;41.26;62692.53;4902163;29;20075;-75
2021/05/26 09:23:12;;;;;;;17.88;6.70;;;;;;;-150.07;41.36;62659.03;4894246;29;20059;-74
2021/05/26 09:25:52;;;;;;;18.70;6.45;;;;;;;-150.07;41.07;62700.91;4901824;29;20042;-75
2021/05/26 09:28:36;;;;;;;19.65;6.93;;;;;;;-150.07;41.03;62656.97;4898282;29;20036;-76
2021/05/26 09:31:08;;;;;;;30.63;7.18;;;;;;;-150.07;40.70;62650.69;4905009;29;21462;-74
2021/05/26 09:33:40;;;;;;;18.65;6.10;;;;;;;-150.07;40.19;62650.69;4902066;29;20115;-74
2021/05/26 09:36:19;;;;;;;22.02;7.05;;;;;;;-150.07;39.83;62518.81;4909188;29;20052;-74
2021/05/26 09:38:52;;;;;;;14.68;6.60;;;;;;;-150.07;39.36;62642.31;4898815;29;20100;-75
2021/05/26 09:41:29;;;;;;;16.75;5.00;;;;;;;-150.07;39.21;62575.31;4906899;29;20033;-73
2021/05/26 09:44:00;;;;;;;19.13;7.93;;;;;;;-150.07;39.06;62617.19;4880110;29;20140;-72
2021/05/26 09:46:37;;;;;;;17.15;6.70;;;;;;;-150.07;38.99;62437.19;4887627;29;20487;-75
2021/05/26 09:49:17;;;;;;;24.38;7.20;;;;;;;-150.07;39.08;62629.75;4912899;29;20095;-75
2021/05/26 09:51:51;;;;;;;15.70;6.17;;;;;;;-150.07;39.44;62556.47;4900267;29;20029;-76
2021/05/26 09:54:20;;;;;;;11.38;4.38;;;;;;;-150.07;40.02;62652.78;4896203;29;20213;-76
2021/05/26 09:56:52;;;;;;;23.23;6.20;;;;;;;-150.07;40.34;62583.69;4897957;29;20051;-76
2021/05/26 09:59:21;;;;;;;18.83;6.28;;;;;;;-150.07;40.35;62613.00;4902864;29;20033;-76
2021/05/26 10:01:53;;;;;;;16.10;6.10;;;;;;;-150.07;40.48;63672.25;4904089;29;20112;-75
2021/05/26 10:04:21;;;;;;;22.38;6.50;;;;;;;-150.07;40.28;63768.56;4909676;29;20024;-78
2021/05/26 10:06:53;;;;;;;14.68;5.55;;;;;;;-150.07;40.69;62684.16;4897237;29;20036;-77
2021/05/26 10:09:25;;;;;;;13.95;6.32;;;;;;;-150.07;40.84;62468.56;4884471;29;20033;-76
2021/05/26 10:11:57;;;;;;;19.17;6.28;;;;;;;-150.07;40.77;63123.75;4898549;29;20036;-77
2021/05/26 10:14:24;;;;;;;20.70;6.70;;;;;;;-150.07;40.88;62608.81;4898249;29;20039;-79
2021/05/26 10:16:55;;;;;;;25.45;5.60;;;;;;;-150.07;40.71;62598.34;4880533;29;20085;-77
2021/05/26 10:19:24;;;;;;;15.63;5.10;;;;;;;-150.07;40.73;62397.41;4894910;29;20021;-73
2021/05/26 10:21:51;;;;;;;22.23;6.35;;;;;;;-150.07;40.86;62566.94;4907031;29;20047;-72
2021/05/26 10:24:22;;;;;;;12.13;4.50;;;;;;;-150.07;40.56;62583.69;4895851;29;20032;-74
2021/05/26 10:26:54;;;;;;;14.07;6.35;;;;;;;-150.07;40.08;62546.03;4895476;29;20036;-76
2021/05/26 10:29:29;;;;;;;12.38;4.68;;;;;;;-150.07;39.83;62608.81;4903510;29;20397;-74
2021/05/26 10:32:08;;;;;;;18.33;6.00;;;;;;;-150.07;39.88;62583.69;4899317;29;20041;-75
2021/05/26 10:34:47;;;;;;;14.60;5.45;;;;;;;-150.07;39.81;62629.75;4896089;29;20033;-76
2021/05/26 10:37:25;;;;;;;17.70;6.15;;;;;;;-150.07;40.08;62631.84;4896985;29;20042;-75
2021/05/26 10:39:52;;;;;;;15.32;5.70;;;;;;;-150.07;40.19;62445.56;4896580;29;20040;-75
2021/05/26 10:42:26;;;;;;;15.70;6.35;;;;;;;-150.07;40.36;62583.69;4901425;29;20033;-75
2021/05/26 10:44:57;;;;;;;18.05;4.97;;;;;;;-150.07;40.19;62552.31;4895622;29;20036;-76
2021/05/26 10:47:39;;;;;;;18.55;5.32;;;;;;;-150.07;40.00;62541.84;4902661;29;20025;-74
2021/05/26 10:50:47;;;;;;;13.65;5.65;;;;;;;-150.07;39.93;62514.63;4892147;29;20037;-74
2021/05/26 10:53:16;;;;;;;17.67;4.97;;;;;;;-150.07;40.19;62520.91;4893451;29;20029;-75
2021/05/26 10:55:52;;;;;;;23.63;4.95;;;;;;;-150.07;40.11;62487.41;4895957;29;20028;-78
2021/05/26 10:58:31;;;;;;;16.48;5.82;;;;;;;-150.07;39.88;62508.34;4905970;29;20032;-78
2021/05/26 11:01:03;;;;;;;15.63;6.53;;;;;;;-150.07;40.13;62525.09;4907555;29;20043;-77
2021/05/26 11:03:34;;;;;;;11.48;5.53;;;;;;;-150.07;40.00;62508.34;4895082;29;20082;-74
2021/05/26 11:06:04;;;;;;;19.38;5.88;;;;;;;-150.07;40.10;62495.78;4892827;29;20057;-75
2021/05/26 11:08:47;;;;;;;17.05;5.05;;;;;;;-150.07;40.07;62466.47;4894907;29;20566;-75
2021/05/26 11:14:14;;;;;;;18.67;5.75;;;;;;;-150.07;40.40;62472.75;4896396;29;20610;-74
2021/05/26 11:16:43;;;;;;;10.98;4.47;;;;;;;-150.07;40.68;62428.81;4899862;29;20040;-74
2021/05/26 11:19:13;;;;;;;16.70;4.93;;;;;;;-150.07;40.18;62443.47;4897103;29;20433;-74
2021/05/26 11:21:42;;;;;;;19.85;5.20;;;;;;;-150.07;40.36;62462.28;4896699;29;20040;-74